Time;durP1;ratioP1;P1;durP2;ratioP2;P2;SDS_P1;SDS_P2;PMS_P1;PMS_P2;Temp;Humidity;BMP_temperature;BMP_pressure;BME280_temperature;BME280_humidity;BME280_pressure;Samples;Min_cycle;Max_cycle;Signal;HPM_P1;HPM_P2
2024/03/24 00:03:05;;;;;;;1.90;1.13;;;;;;;6.33;69.78;99587.44;10426159;28;20063;-57
2024/03/24 00:08:06;;;;;;;8.88;2.60;;;;;;;6.27;69.99;99585.47;10414039;28;20045;-58
2024/03/24 00:13:06;;;;;;;8.88;2.15;;;;;;;6.24;70.28;99572.47;10410686;28;20645;-57
2024/03/24 00:18:07;;;;;;;5.38;2.65;;;;;;;6.40;69.51;99566.28;10417363;28;20055;-57
2024/03/24 00:23:07;;;;;;;6.22;1.98;;;;;;;6.39;70.00;99571.78;10416514;28;20038;-57
2024/03/24 00:28:08;;;;;;;6.82;2.97;;;;;;;6.42;70.38;99566.09;10417064;28;20072;-57
2024/03/24 00:33:08;;;;;;;5.05;3.00;;;;;;;6.45;69.53;99555.91;10426534;28;20056;-57
2024/03/24 00:38:09;;;;;;;4.10;2.40;;;;;;;6.46;70.18;99557.59;10418105;28;20046;-57
2024/03/24 00:43:10;;;;;;;5.25;2.47;;;;;;;6.35;70.51;99550.75;10421065;28;20515;-58
2024/03/24 00:48:10;;;;;;;4.40;2.67;;;;;;;6.41;69.93;99535.06;10423947;28;20052;-57
2024/03/24 00:53:11;;;;;;;7.50;3.10;;;;;;;6.36;70.16;99538.25;10419082;28;20041;-59
2024/03/24 00:58:11;;;;;;;5.97;3.50;;;;;;;6.35;70.51;99531.25;10413339;28;20500;-57
2024/03/24 01:03:12;;;;;;;8.23;3.60;;;;;;;6.44;70.08;99532.09;10421720;28;20793;-58
2024/03/24 01:08:12;;;;;;;10.18;3.28;;;;;;;6.52;69.95;99522.22;10417054;28;20053;-58
2024/03/24 01:13:13;;;;;;;10.15;3.30;;;;;;;6.56;70.48;99520.03;10415279;28;20458;-59
2024/03/24 01:18:13;;;;;;;10.27;3.88;;;;;;;6.63;70.27;99515.66;10423176;28;20048;-59
2024/03/24 01:23:14;;;;;;;7.63;3.28;;;;;;;6.69;69.74;99490.94;10416439;28;20463;-58
2024/03/24 01:28:14;;;;;;;7.85;3.53;;;;;;;6.68;69.41;99491.94;10420198;28;20061;-58
2024/03/24 01:33:15;;;;;;;7.25;3.08;;;;;;;6.58;70.44;99480.66;10416738;28;20682;-58
2024/03/24 01:38:15;;;;;;;10.30;3.20;;;;;;;6.53;70.85;99467.78;10419026;28;20722;-58
2024/03/24 01:43:16;;;;;;;6.65;2.90;;;;;;;6.51;70.01;99459.13;10403319;28;20557;-58
2024/03/24 01:48:17;;;;;;;5.68;2.65;;;;;;;6.43;70.12;99445.81;10412425;28;20041;-58
2024/03/24 01:53:19;;;;;;;4.47;2.10;;;;;;;6.30;70.21;99427.66;10420055;28;20594;-59
2024/03/24 01:58:20;;;;;;;5.93;1.58;;;;;;;6.23;70.81;99425.84;10415345;28;20053;-58
2024/03/24 02:03:20;;;;;;;4.78;2.55;;;;;;;6.07;70.46;99414.22;10417031;28;20053;-59
2024/03/24 02:08:21;;;;;;;3.03;1.73;;;;;;;6.00;70.27;99412.38;10416284;28;20575;-57
2024/03/24 02:13:21;;;;;;;4.45;1.95;;;;;;;5.98;70.88;99414.41;10421788;28;20107;-57
2024/03/24 02:18:22;;;;;;;4.15;1.60;;;;;;;5.94;69.96;99413.88;10419926;28;20041;-59
2024/03/24 02:23:23;;;;;;;5.20;2.00;;;;;;;6.07;70.38;99434.72;10421199;28;20049;-58
2024/03/24 02:28:23;;;;;;;6.10;2.03;;;;;;;6.17;70.18;99430.03;10422793;28;20052;-58
2024/03/24 02:33:24;;;;;;;4.63;1.58;;;;;;;6.27;70.35;99428.00;10417577;28;20453;-58
2024/03/24 02:38:25;;;;;;;4.95;1.58;;;;;;;6.40;69.32;99426.63;10418804;28;20053;-58
2024/03/24 02:43:25;;;;;;;3.72;1.58;;;;;;;6.51;69.43;99419.06;10419299;28;20064;-58
2024/03/24 02:48:26;;;;;;;4.30;1.27;;;;;;;6.55;69.65;99401.69;10419573;28;20510;-59
2024/03/24 02:53:26;;;;;;;4.57;2.05;;;;;;;6.69;69.40;99404.66;10420151;28;20048;-59
2024/03/24 02:58:27;;;;;;;3.67;1.65;;;;;;;6.61;69.49;99392.16;10420339;28;20053;-59
2024/03/24 03:03:27;;;;;;;4.75;2.30;;;;;;;6.54;69.44;99384.03;10422618;28;20045;-59
2024/03/24 03:08:28;;;;;;;4.47;1.25;;;;;;;6.44;70.19;99383.41;10420282;28;20102;-59
2024/03/24 03:13:29;;;;;;;3.28;1.00;;;;;;;6.35;69.62;99379.94;10417774;28;20049;-59
2024/03/24 03:18:29;;;;;;;2.42;0.90;;;;;;;6.24;70.88;99388.34;10419675;28;20037;-59
2024/03/24 03:23:30;;;;;;;1.20;0.70;;;;;;;6.29;70.53;99385.97;10420039;28;20056;-60
2024/03/24 03:28:30;;;;;;;2.70;0.60;;;;;;;6.39;70.29;99383.09;10420845;28;20721;-59
2024/03/24 03:33:31;;;;;;;1.77;0.68;;;;;;;6.47;69.95;99377.72;10419036;28;20132;-58
2024/03/24 03:38:31;;;;;;;0.93;0.40;;;;;;;6.63;69.56;99373.31;10422204;28;20064;-59
2024/03/24 03:43:32;;;;;;;1.15;0.40;;;;;;;6.72;68.98;99369.59;10417167;28;20049;-59
2024/03/24 03:48:33;;;;;;;2.28;0.60;;;;;;;6.70;69.48;99363.59;10420712;28;20041;-59
2024/03/24 03:53:37;;;;;;;0.75;0.30;;;;;;;6.69;69.27;99372.59;10419425;28;20456;-60
2024/03/24 03:58:38;;;;;;;2.30;0.25;;;;;;;6.62;69.37;99356.47;10426402;28;20044;-59
2024/03/24 04:03:39;;;;;;;3.03;0.30;;;;;;;6.58;69.80;99357.81;10421284;28;20045;-59
2024/03/24 04:08:40;;;;;;;0.85;0.30;;;;;;;6.55;69.25;99350.16;10417198;28;20427;-59
2024/03/24 04:13:42;;;;;;;1.77;0.30;;;;;;;6.51;69.39;99347.00;10401875;28;20041;-59
2024/03/24 04:18:46;;;;;;;2.78;0.38;;;;;;;6.49;68.99;99346.34;10414876;28;20045;-59
2024/03/24 04:23:46;;;;;;;0.98;0.28;;;;;;;6.48;69.90;99351.88;10423888;28;20404;-59
2024/03/24 04:28:47;;;;;;;0.30;0.20;;;;;;;6.57;69.61;99347.31;10417246;28;20065;-59
2024/03/24 04:33:47;;;;;;;1.17;0.40;;;;;;;6.62;68.75;99344.97;10417349;28;20059;-59
2024/03/24 04:38:48;;;;;;;1.80;0.20;;;;;;;6.58;68.93;99349.81;10420439;28;20041;-59
2024/03/24 04:43:48;;;;;;;2.22;0.43;;;;;;;6.59;68.60;99346.13;10412653;28;20041;-59
2024/03/24 04:48:49;;;;;;;0.90;0.30;;;;;;;6.55;69.01;99342.97;10411919;28;20048;-58
2024/03/24 04:53:49;;;;;;;0.65;0.22;;;;;;;6.54;68.89;99343.97;10414244;28;20671;-59
2024/03/24 04:58:50;;;;;;;1.10;0.28;;;;;;;6.48;68.80;99338.53;10415940;28;20041;-58
2024/03/24 05:03:51;;;;;;;1.90;0.30;;;;;;;6.49;68.63;99337.50;10419149;28;20048;-59
2024/03/24 05:08:51;;;;;;;6.90;0.40;;;;;;;6.48;68.66;99335.84;10418255;28;20179;-58
2024/03/24 05:13:52;;;;;;;1.63;0.40;;;;;;;6.47;68.29;99332.34;10417326;28;20049;-59
2024/03/24 05:18:53;;;;;;;0.98;0.38;;;;;;;6.56;68.45;99325.13;10410961;28;20041;-65
2024/03/24 05:23:54;;;;;;;1.60;0.60;;;;;;;6.70;68.26;99323.53;10410560;28;20636;-65
2024/03/24 05:28:54;;;;;;;1.05;0.30;;;;;;;6.78;67.62;99318.16;10395368;28;20047;-66
2024/03/24 05:33:55;;;;;;;0.70;0.30;;;;;;;6.82;68.03;99316.78;10417387;28;20049;-64
2024/03/24 05:38:57;;;;;;;2.38;0.47;;;;;;;6.75;68.10;99308.66;10416871;28;20045;-66
2024/03/24 05:43:58;;;;;;;1.13;0.30;;;;;;;6.77;68.06;99307.63;10419540;28;20115;-62
2024/03/24 05:48:58;;;;;;;1.60;0.30;;;;;;;6.67;68.05;99302.53;10400122;28;20049;-62
2024/03/24 05:53:59;;;;;;;0.52;0.35;;;;;;;6.66;67.73;99303.53;10425176;28;20045;-62
2024/03/24 05:58:59;;;;;;;1.88;0.30;;;;;;;6.62;68.11;99308.41;10428187;28;20052;-62
2024/03/24 06:04:00;;;;;;;1.00;0.40;;;;;;;6.67;67.25;99297.19;10421461;28;21115;-62
2024/03/24 06:09:00;;;;;;;0.50;0.43;;;;;;;6.70;67.19;99302.19;10422451;28;20048;-62
2024/03/24 06:14:01;;;;;;;0.77;0.40;;;;;;;6.73;67.01;99308.00;10404487;28;20458;-62
2024/03/24 06:19:02;;;;;;;1.83;0.40;;;;;;;6.84;66.48;99300.59;10426914;28;20036;-60
2024/03/24 06:24:02;;;;;;;0.85;0.30;;;;;;;6.84;66.76;99301.41;10428580;28;20037;-60
2024/03/24 06:29:03;;;;;;;0.82;0.30;;;;;;;6.84;66.62;99305.94;10422425;28;20109;-59
2024/03/24 06:34:06;;;;;;;1.65;0.30;;;;;;;6.86;66.28;99301.25;10419102;28;20103;-60
2024/03/24 06:39:08;;;;;;;1.95;0.55;;;;;;;6.95;65.43;99295.66;10422458;28;20048;-60
2024/03/24 06:44:13;;;;;;;0.75;0.25;;;;;;;7.04;65.86;99307.09;10423488;28;20049;-59
2024/03/24 06:49:13;;;;;;;0.68;0.32;;;;;;;7.08;65.62;99303.06;10425922;28;20416;-60
2024/03/24 06:54:14;;;;;;;1.10;0.40;;;;;;;7.10;65.43;99305.56;10421783;28;20048;-60
2024/03/24 06:59:14;;;;;;;1.48;0.32;;;;;;;7.19;64.69;99314.31;10423893;28;20053;-60
2024/03/24 07:04:15;;;;;;;1.92;0.35;;;;;;;7.36;64.13;99305.16;10419610;28;20060;-60
2024/03/24 07:09:16;;;;;;;0.98;0.43;;;;;;;7.48;64.57;99297.53;10422337;28;20049;-60
2024/03/24 07:14:16;;;;;;;0.35;0.30;;;;;;;7.48;64.33;99289.50;10424714;28;20049;-61
2024/03/24 07:19:17;;;;;;;1.15;0.40;;;;;;;7.52;63.44;99290.81;10421958;28;20045;-61
2024/03/24 07:24:17;;;;;;;1.33;0.40;;;;;;;7.65;63.09;99300.88;10407959;28;20041;-61
2024/03/24 07:29:18;;;;;;;1.65;0.50;;;;;;;7.83;62.46;99295.16;10406673;28;20131;-61
2024/03/24 07:34:19;;;;;;;1.30;0.50;;;;;;;7.77;63.04;99298.59;10408495;28;20052;-60
2024/03/24 07:39:19;;;;;;;1.58;0.50;;;;;;;7.78;62.73;99297.56;10404817;28;20066;-61
2024/03/24 07:44:20;;;;;;;2.38;0.50;;;;;;;7.71;62.52;99289.44;10406150;28;20075;-61
2024/03/24 07:49:20;;;;;;;1.25;0.60;;;;;;;7.74;62.53;99292.59;10404216;28;20338;-60
2024/03/24 07:54:21;;;;;;;2.83;0.57;;;;;;;7.86;62.89;99286.75;10401661;28;20508;-60
2024/03/24 07:59:21;;;;;;;2.45;0.60;;;;;;;7.95;62.57;99297.19;10412995;28;20049;-61
2024/03/24 08:04:22;;;;;;;2.80;0.70;;;;;;;7.99;62.54;99304.84;10402848;28;20140;-62
2024/03/24 08:09:24;;;;;;;4.43;0.60;;;;;;;7.83;63.16;99298.66;10411937;28;20056;-59
2024/03/24 08:14:24;;;;;;;5.80;0.98;;;;;;;7.83;63.28;99303.19;10403278;28;20044;-59
2024/03/24 08:19:25;;;;;;;1.80;0.70;;;;;;;7.89;63.28;99297.94;10401873;28;20045;-58
2024/03/24 08:24:25;;;;;;;5.93;0.95;;;;;;;8.19;62.52;99305.94;10416918;28;20142;-59
2024/03/24 08:29:26;;;;;;;1.90;0.60;;;;;;;8.22;62.94;99310.94;10427740;28;20071;-58
2024/03/24 08:34:26;;;;;;;3.90;0.90;;;;;;;8.29;63.29;99319.03;10415977;28;20045;-58
2024/03/24 08:39:27;;;;;;;3.10;0.75;;;;;;;8.52;62.97;99313.59;10409257;28;20040;-59
2024/03/24 08:44:27;;;;;;;6.47;0.95;;;;;;;8.72;62.84;99313.81;10420230;28;20584;-57
2024/03/24 08:49:28;;;;;;;3.28;0.90;;;;;;;8.89;62.58;99301.00;10417242;28;20055;-58
2024/03/24 08:54:28;;;;;;;6.03;1.90;;;;;;;9.10;62.23;99294.78;10416554;28;20072;-57
2024/03/24 08:59:29;;;;;;;4.72;0.90;;;;;;;9.27;61.84;99298.06;10415731;28;20051;-57
2024/03/24 09:04:29;;;;;;;3.72;1.30;;;;;;;9.18;62.70;99291.97;10417012;28;20411;-58
2024/03/24 09:09:30;;;;;;;4.57;1.00;;;;;;;9.39;62.48;99287.63;10416538;28;20423;-59
2024/03/24 09:14:30;;;;;;;3.63;0.98;;;;;;;9.64;62.22;99269.25;10399104;28;20049;-59
2024/03/24 09:19:31;;;;;;;5.82;1.38;;;;;;;9.80;61.98;99273.47;10413107;28;20049;-60
2024/03/24 09:24:32;;;;;;;5.00;1.17;;;;;;;9.56;62.23;99288.16;10411894;28;20468;-60
2024/03/24 09:29:33;;;;;;;2.72;0.93;;;;;;;8.83;64.07;99305.28;10416099;28;20403;-58
2024/03/24 09:34:33;;;;;;;4.25;1.17;;;;;;;8.32;65.61;99306.13;10414660;28;20060;-59
2024/03/24 09:39:34;;;;;;;3.45;1.20;;;;;;;7.98;66.75;99306.72;10404849;28;20053;-60
2024/03/24 09:44:35;;;;;;;2.50;1.27;;;;;;;7.94;67.24;99295.53;10411022;28;20462;-60
2024/03/24 09:49:36;;;;;;;6.72;1.75;;;;;;;8.08;67.51;99303.75;10416053;28;20049;-60
2024/03/24 09:54:37;;;;;;;3.17;1.25;;;;;;;8.18;67.63;99309.66;10419461;28;20054;-60
2024/03/24 09:59:39;;;;;;;5.95;1.58;;;;;;;8.11;67.85;99304.19;10409289;28;20055;-61
2024/03/24 10:04:40;;;;;;;3.08;1.40;;;;;;;7.83;68.80;99304.03;10413607;28;20038;-61
2024/03/24 10:09:40;;;;;;;4.72;1.17;;;;;;;7.80;69.13;99304.41;10418653;28;20046;-61
2024/03/24 10:14:42;;;;;;;3.13;0.95;;;;;;;7.61;69.37;99318.31;10418529;28;20041;-61
2024/03/24 10:19:46;;;;;;;5.15;0.70;;;;;;;7.64;69.52;99321.47;10416185;28;20052;-61
2024/03/24 10:24:47;;;;;;;1.92;0.70;;;;;;;8.28;68.70;99309.38;10401348;28;20091;-61
2024/03/24 10:29:51;;;;;;;0.80;0.50;;;;;;;8.22;69.45;99302.91;10421018;28;20071;-65
2024/03/24 10:34:54;;;;;;;1.92;0.60;;;;;;;8.41;68.75;99296.19;10423010;28;20052;-64
2024/03/24 10:39:55;;;;;;;1.35;0.30;;;;;;;13.41;57.50;99250.41;10436129;28;20103;-64
2024/03/24 10:44:58;;;;;;;1.95;0.20;;;;;;;12.81;58.68;99265.13;10420429;28;20115;-65
2024/03/24 10:49:58;;;;;;;1.83;0.20;;;;;;;14.78;53.97;99268.16;10431734;28;20045;-65
2024/03/24 10:55:00;;;;;;;1.73;0.35;;;;;;;15.33;51.84;99238.13;10424109;28;20041;-65
2024/03/24 11:00:03;;;;;;;2.40;0.40;;;;;;;13.07;57.21;99247.97;10426171;28;20125;-65
2024/03/24 11:05:04;;;;;;;1.88;0.38;;;;;;;11.88;60.13;99257.47;10419724;28;20082;-66
2024/03/24 11:10:05;;;;;;;1.75;0.60;;;;;;;11.51;60.15;99247.19;10421627;28;20045;-65
2024/03/24 11:15:09;;;;;;;2.28;0.40;;;;;;;11.49;59.92;99243.03;10419474;28;20115;-67
2024/03/24 11:20:16;;;;;;;3.03;0.50;;;;;;;11.53;60.45;99238.88;10422781;28;20040;-64
2024/03/24 11:25:17;;;;;;;1.85;0.43;;;;;;;11.04;60.28;99257.16;10418270;28;20041;-67
2024/03/24 11:30:28;;;;;;;2.67;0.30;;;;;;;10.19;61.20;99263.94;10407133;28;20060;-66
2024/03/24 11:35:29;;;;;;;0.40;0.20;;;;;;;9.62;61.11;99304.31;10391878;28;20067;-64
2024/03/24 11:40:30;;;;;;;1.63;0.20;;;;;;;7.73;64.64;99301.63;10402283;28;20045;-62
2024/03/24 11:45:34;;;;;;;0.93;0.10;;;;;;;7.58;66.34;99303.44;10401514;28;20072;-61
2024/03/24 11:50:37;;;;;;;0.55;0.10;;;;;;;8.34;65.86;99304.06;10401542;28;20037;-62
2024/03/24 11:55:38;;;;;;;2.72;0.40;;;;;;;7.57;67.78;99319.69;10406008;28;20111;-62
2024/03/24 12:00:39;;;;;;;2.47;0.45;;;;;;;6.60;70.27;99302.41;10411732;28;20045;-63
2024/03/24 12:05:40;;;;;;;3.25;0.60;;;;;;;6.66;69.47;99283.00;10409537;28;20041;-63
2024/03/24 12:10:40;;;;;;;4.05;0.80;;;;;;;7.18;68.94;99284.09;10403181;28;20049;-65
2024/03/24 12:15:44;;;;;;;3.10;0.65;;;;;;;8.34;68.32;99269.28;10396980;28;20052;-65
2024/03/24 12:20:45;;;;;;;1.42;0.43;;;;;;;10.76;64.88;99234.97;10408802;28;20049;-64
2024/03/24 12:25:49;;;;;;;3.63;0.50;;;;;;;13.16;60.05;99216.13;10402903;28;20091;-62
2024/03/24 12:30:52;;;;;;;2.60;1.10;;;;;;;17.98;50.17;99178.09;10401701;28;20045;-64
2024/03/24 12:35:54;;;;;;;1.80;0.38;;;;;;;20.33;46.95;99163.75;10410858;28;20056;-65
2024/03/24 12:40:56;;;;;;;2.15;0.40;;;;;;;16.30;55.19;99171.66;10409684;28;20052;-64
2024/03/24 12:45:59;;;;;;;1.73;0.40;;;;;;;14.91;57.19;99172.41;10405748;28;20052;-63
2024/03/24 12:51:00;;;;;;;2.58;0.60;;;;;;;13.67;58.59;99174.53;10405145;28;20054;-65
2024/03/24 12:56:02;;;;;;;2.08;0.50;;;;;;;13.32;58.06;99176.16;10404453;28;20041;-65
2024/03/24 13:01:04;;;;;;;3.92;0.40;;;;;;;12.79;58.11;99175.53;10402444;28;20037;-63
2024/03/24 13:06:11;;;;;;;0.52;0.13;;;;;;;14.73;50.83;99173.34;10401043;28;20450;-65
2024/03/24 13:11:11;;;;;;;1.47;0.30;;;;;;;13.56;52.81;99183.38;10398191;28;20524;-64
2024/03/24 13:16:34;;;;;;;0.60;0.13;;;;;;;13.28;52.82;99175.75;10399598;28;20384;-63
2024/03/24 13:21:43;;;;;;;0.70;0.20;;;;;;;12.63;54.77;99166.13;10401558;28;20071;-63
2024/03/24 13:26:46;;;;;;;2.92;0.30;;;;;;;12.23;55.30;99169.06;10403667;28;20049;-63
2024/03/24 13:31:46;;;;;;;2.47;0.30;;;;;;;12.30;55.58;99167.19;10400754;28;20053;-62
2024/03/24 13:37:04;;;;;;;0.80;0.30;;;;;;;12.37;56.00;99153.66;10395240;28;20045;-68
2024/03/24 13:42:11;;;;;;;2.00;0.20;;;;;;;12.14;56.02;99156.88;10401170;28;20069;-63
2024/03/24 13:47:29;;;;;;;1.63;0.20;;;;;;;12.47;55.49;99137.81;10412982;28;20045;-66
2024/03/24 13:52:34;;;;;;;2.17;0.28;;;;;;;11.87;56.36;99137.34;10408195;28;20048;-65
2024/03/24 13:57:34;;;;;;;1.10;0.60;;;;;;;11.44;56.97;99283.22;10405388;28;20058;-61
2024/03/24 14:02:35;;;;;;;1.48;0.35;;;;;;;8.21;64.02;99303.91;10403847;28;20127;-60
2024/03/24 14:07:35;;;;;;;0.50;0.20;;;;;;;7.49;66.65;99235.03;10411161;28;20095;-59
2024/03/24 14:13:10;;;;;;;2.13;0.30;;;;;;;9.10;64.14;99209.88;10412395;28;20519;-60
2024/03/24 14:18:17;;;;;;;0.68;0.30;;;;;;;9.16;65.52;99202.03;10414065;28;20045;-59
2024/03/24 14:23:24;;;;;;;0.50;0.30;;;;;;;9.09;66.48;99210.88;10407722;28;20064;-59
2024/03/24 14:28:25;;;;;;;1.67;0.50;;;;;;;10.51;65.04;99189.88;10405782;28;20037;-59
2024/03/24 14:33:25;;;;;;;2.42;0.40;;;;;;;10.89;66.01;99205.44;10405678;28;20118;-57
2024/03/24 14:38:41;;;;;;;0.40;0.30;;;;;;;10.00;67.96;99226.06;10405839;28;20510;-57
2024/03/24 14:44:01;;;;;;;2.13;0.40;;;;;;;9.20;69.59;99235.47;10406314;28;20052;-58
2024/03/24 14:49:02;;;;;;;1.10;0.30;;;;;;;9.13;70.94;99228.22;10412809;28;20044;-58
2024/03/24 14:54:02;;;;;;;3.25;0.50;;;;;;;9.35;70.91;99241.59;10406702;28;20055;-58
2024/03/24 14:59:06;;;;;;;4.63;0.90;;;;;;;9.34;71.46;99237.25;10406086;28;20822;-59
2024/03/24 15:04:08;;;;;;;2.20;0.50;;;;;;;10.44;69.63;99221.28;10408685;28;20040;-59
2024/03/24 15:09:10;;;;;;;1.50;0.50;;;;;;;9.90;70.69;99226.44;10411595;28;20087;-59
2024/03/24 15:14:11;;;;;;;2.35;0.40;;;;;;;9.75;70.68;99216.84;10403324;28;20040;-58
2024/03/24 15:19:12;;;;;;;1.60;0.40;;;;;;;9.63;70.67;99222.78;10404236;28;20049;-57
2024/03/24 15:24:13;;;;;;;2.00;0.40;;;;;;;9.52;70.90;99224.16;10413755;28;20057;-57
2024/03/24 15:29:13;;;;;;;2.55;0.57;;;;;;;9.79;70.63;99218.13;10416508;28;20498;-57
2024/03/24 15:34:14;;;;;;;2.92;0.60;;;;;;;10.80;69.40;99188.69;10419094;28;20061;-58
2024/03/24 15:39:14;;;;;;;4.43;0.40;;;;;;;10.30;70.35;99183.63;10408787;28;20053;-56
2024/03/24 15:44:35;;;;;;;2.80;0.50;;;;;;;10.21;70.21;99194.72;10410589;28;20773;-55
2024/03/24 15:49:36;;;;;;;1.10;0.30;;;;;;;10.15;69.89;99196.38;10386446;28;20053;-58
2024/03/24 15:54:36;;;;;;;1.73;0.50;;;;;;;9.92;69.84;99207.44;10418849;28;20049;-57
2024/03/24 15:59:42;;;;;;;1.13;0.45;;;;;;;9.80;69.15;99209.06;10408702;28;21020;-56
2024/03/24 16:04:42;;;;;;;0.70;0.30;;;;;;;9.75;68.97;99209.63;10414449;28;20045;-57
2024/03/24 16:09:55;;;;;;;2.70;0.70;;;;;;;9.76;68.77;99207.78;10420052;28;20049;-56
2024/03/24 16:14:55;;;;;;;0.60;0.40;;;;;;;9.81;68.79;99210.69;10417428;28;20045;-56
2024/03/24 16:20:04;;;;;;;5.30;0.60;;;;;;;9.90;68.57;99210.31;10416572;28;20123;-58
2024/03/24 16:25:05;;;;;;;3.28;0.57;;;;;;;10.01;68.37;99206.25;10399430;28;20723;-58
2024/03/24 16:30:07;;;;;;;1.88;0.85;;;;;;;9.96;68.64;99224.81;10409699;28;20062;-60
2024/03/24 16:35:08;;;;;;;3.08;0.52;;;;;;;10.38;68.22;99217.53;10404089;28;20045;-57
2024/03/24 16:40:10;;;;;;;1.73;0.70;;;;;;;10.23;68.03;99230.25;10406723;28;20148;-58
2024/03/24 16:45:14;;;;;;;3.03;0.73;;;;;;;10.31;67.65;99232.81;10404253;28;20056;-57
2024/03/24 16:50:14;;;;;;;7.72;0.82;;;;;;;10.57;67.25;99231.25;10402526;28;20057;-56
2024/03/24 16:55:15;;;;;;;6.30;0.88;;;;;;;10.69;67.39;99211.59;10398781;28;20053;-56
2024/03/24 17:00:16;;;;;;;4.22;0.75;;;;;;;10.77;67.27;99207.91;10401596;28;20507;-58
2024/03/24 17:05:16;;;;;;;1.45;0.70;;;;;;;10.79;66.37;99213.06;10398649;28;20046;-57
2024/03/24 17:10:17;;;;;;;1.50;0.70;;;;;;;10.78;66.12;99208.72;10392857;28;20041;-57
2024/03/24 17:15:17;;;;;;;4.35;0.65;;;;;;;10.75;66.05;99206.47;10400693;28;20801;-58
2024/03/24 17:20:18;;;;;;;5.20;0.70;;;;;;;10.58;65.31;99209.53;10406035;28;20046;-58
2024/03/24 17:25:18;;;;;;;1.80;0.40;;;;;;;10.47;64.60;99210.97;10404003;28;20067;-60
2024/03/24 17:30:19;;;;;;;4.40;0.50;;;;;;;10.40;63.87;99214.66;10402428;28;20095;-68
2024/03/24 17:35:20;;;;;;;5.13;1.05;;;;;;;10.36;63.34;99235.72;10402288;28;20057;-71
2024/03/24 17:40:21;;;;;;;2.67;0.65;;;;;;;10.24;63.54;99264.16;10415063;28;20519;-68
2024/03/24 17:45:22;;;;;;;6.57;0.65;;;;;;;10.03;63.86;99273.16;10394220;28;20037;-72
2024/03/24 17:50:22;;;;;;;2.05;0.57;;;;;;;9.83;63.84;99281.91;10403752;28;20515;-71
2024/03/24 17:55:23;;;;;;;1.85;0.55;;;;;;;9.85;63.50;99279.91;10405301;28;20060;-68
2024/03/24 18:00:23;;;;;;;1.42;0.60;;;;;;;9.92;63.51;99280.75;10408270;28;20052;-71
2024/03/24 18:05:24;;;;;;;4.38;1.00;;;;;;;9.85;63.25;99281.72;10405192;28;20606;-68
2024/03/24 18:10:25;;;;;;;4.47;0.57;;;;;;;9.95;62.80;99297.47;10405586;28;20045;-71
2024/03/24 18:15:26;;;;;;;3.17;0.50;;;;;;;10.02;62.69;99312.59;10408075;28;20045;-63
2024/03/24 18:20:27;;;;;;;4.30;0.95;;;;;;;10.00;62.69;99282.44;10409075;28;20049;-62
2024/03/24 18:25:28;;;;;;;1.88;0.80;;;;;;;9.90;62.55;99298.09;10409357;28;20071;-62
2024/03/24 18:30:28;;;;;;;1.13;0.57;;;;;;;9.88;62.58;99300.13;10411473;28;20474;-63
2024/03/24 18:35:29;;;;;;;3.45;0.85;;;;;;;9.89;62.33;99291.91;10412946;28;20107;-62
2024/03/24 18:40:30;;;;;;;1.92;0.60;;;;;;;9.87;62.05;99304.69;10378932;28;20057;-60
2024/03/24 18:45:30;;;;;;;2.50;0.40;;;;;;;9.86;61.63;99304.88;10405381;28;20045;-57
2024/03/24 18:50:32;;;;;;;2.25;0.50;;;;;;;9.90;61.67;99301.59;10404442;28;20506;-57
2024/03/24 18:55:32;;;;;;;2.00;0.65;;;;;;;9.92;61.63;99310.28;10403738;28;20492;-59
2024/03/24 19:00:33;;;;;;;4.25;0.60;;;;;;;9.89;61.25;99315.19;10406317;28;20049;-59
2024/03/24 19:05:33;;;;;;;2.90;0.90;;;;;;;9.85;61.08;99313.94;10402099;28;20045;-58
2024/03/24 19:10:34;;;;;;;2.45;0.70;;;;;;;9.87;60.85;99311.88;10405304;28;20041;-58
2024/03/24 19:15:34;;;;;;;2.88;1.00;;;;;;;9.82;60.97;99317.84;10400492;28;20072;-58
2024/03/24 19:20:35;;;;;;;2.63;0.93;;;;;;;9.77;60.70;99331.03;10410412;28;20431;-58
2024/03/24 19:25:35;;;;;;;4.00;0.77;;;;;;;9.55;61.33;99380.41;10405275;28;20045;-58
2024/03/24 19:30:36;;;;;;;5.18;0.55;;;;;;;8.74;63.14;99392.97;10402943;28;20048;-57
2024/03/24 19:35:36;;;;;;;2.17;0.90;;;;;;;8.53;63.91;99376.84;10394085;28;20065;-56
2024/03/24 19:40:37;;;;;;;5.75;0.90;;;;;;;8.63;64.08;99392.63;10405046;28;20044;-56
2024/03/24 19:45:38;;;;;;;2.30;0.80;;;;;;;8.80;63.37;99371.81;10401561;28;20044;-56
2024/03/24 19:50:38;;;;;;;2.35;0.80;;;;;;;8.90;63.41;99373.16;10401371;28;20047;-57
2024/03/24 19:55:39;;;;;;;2.50;0.70;;;;;;;8.96;63.70;99374.25;10391237;28;20063;-57
2024/03/24 20:00:39;;;;;;;1.60;0.50;;;;;;;8.97;63.61;99367.06;10403798;28;20492;-57
2024/03/24 20:05:40;;;;;;;4.18;0.60;;;;;;;9.00;63.19;99366.66;10403917;28;20056;-57
2024/03/24 20:10:42;;;;;;;5.10;0.80;;;;;;;9.08;63.11;99363.88;10386484;28;20499;-57
2024/03/24 20:15:43;;;;;;;4.70;0.70;;;;;;;9.17;62.81;99357.38;10398646;28;20049;-59
2024/03/24 20:20:45;;;;;;;4.35;0.98;;;;;;;9.18;63.22;99356.31;10399007;28;20061;-59
2024/03/24 20:25:45;;;;;;;5.90;0.80;;;;;;;9.19;62.62;99363.38;10396982;28;20103;-59
2024/03/24 20:30:46;;;;;;;1.70;0.60;;;;;;;9.26;61.95;99377.69;10386453;28;20491;-58
2024/03/24 20:35:48;;;;;;;2.92;1.40;;;;;;;9.29;61.89;99371.91;10409660;28;20056;-59
2024/03/24 20:40:49;;;;;;;2.47;0.55;;;;;;;9.39;62.23;99378.81;10401035;28;20045;-59
2024/03/24 20:45:50;;;;;;;6.30;0.95;;;;;;;9.49;61.65;99379.31;10404018;28;20068;-59
2024/03/24 20:50:50;;;;;;;2.28;0.90;;;;;;;9.51;61.62;99383.44;10399911;28;20045;-60
2024/03/24 20:55:52;;;;;;;3.15;0.50;;;;;;;9.56;61.64;99380.22;10403760;28;20455;-59
2024/03/24 21:00:53;;;;;;;5.25;0.60;;;;;;;9.64;61.59;99388.13;10399526;28;20041;-58
2024/03/24 21:05:54;;;;;;;6.07;0.73;;;;;;;9.62;61.67;99395.53;10381688;28;20084;-57
2024/03/24 21:10:54;;;;;;;8.57;0.70;;;;;;;9.65;61.57;99407.72;10398463;28;20082;-58
2024/03/24 21:15:55;;;;;;;3.25;0.50;;;;;;;9.67;61.34;99394.94;10399296;28;20049;-58
2024/03/24 21:20:55;;;;;;;2.75;0.50;;;;;;;9.64;61.19;99400.72;10402277;28;20048;-58
2024/03/24 21:25:56;;;;;;;2.75;0.40;;;;;;;9.72;61.08;99398.72;10396675;28;20057;-57
2024/03/24 21:30:57;;;;;;;4.47;0.80;;;;;;;9.72;61.03;99400.56;10390713;28;20649;-58
2024/03/24 21:35:57;;;;;;;1.45;0.50;;;;;;;9.70;60.70;99411.50;10399479;28;20092;-56
2024/03/24 21:46:17;;;;;;;1.95;0.40;;;;;;;9.46;60.55;99430.69;10399085;28;20064;-56
2024/03/24 21:51:18;;;;;;;3.83;1.40;;;;;;;9.47;60.28;99432.31;10403015;28;20048;-55
2024/03/24 21:56:19;;;;;;;5.55;0.50;;;;;;;9.52;60.10;99436.09;10382374;28;20095;-55
2024/03/24 22:01:19;;;;;;;3.60;0.80;;;;;;;9.51;59.93;99433.59;10398745;28;20098;-56
2024/03/24 22:06:20;;;;;;;4.15;0.60;;;;;;;9.52;60.04;99432.59;10399735;28;20037;-57
2024/03/24 22:11:20;;;;;;;3.00;0.65;;;;;;;9.59;59.59;99436.16;10397797;28;20046;-56
2024/03/24 22:16:21;;;;;;;2.53;0.47;;;;;;;9.55;59.80;99434.06;10398511;28;20068;-55
2024/03/24 22:21:22;;;;;;;1.95;0.38;;;;;;;9.64;59.74;99423.00;10404957;28;20049;-56
2024/03/24 22:26:23;;;;;;;1.88;0.50;;;;;;;9.57;59.82;99448.94;10411001;28;20044;-56
2024/03/24 22:31:23;;;;;;;5.60;0.75;;;;;;;9.49;59.83;99439.16;10408557;28;20041;-56
2024/03/24 22:36:24;;;;;;;4.22;0.30;;;;;;;9.41;59.17;99441.16;10406800;28;20051;-56
2024/03/24 22:41:24;;;;;;;1.88;0.50;;;;;;;9.45;59.43;99445.09;10409941;28;20038;-56
2024/03/24 22:46:25;;;;;;;1.90;0.47;;;;;;;9.42;59.13;99427.56;10410253;28;20060;-55
2024/03/24 22:51:25;;;;;;;2.50;0.38;;;;;;;9.32;59.04;99429.69;10406429;28;20045;-55
2024/03/24 22:56:26;;;;;;;3.60;0.50;;;;;;;9.39;58.96;99430.59;10405308;28;20055;-56
2024/03/24 23:01:26;;;;;;;4.47;0.50;;;;;;;9.44;59.23;99436.22;10411341;28;20068;-56
2024/03/24 23:06:27;;;;;;;1.70;0.30;;;;;;;9.33;58.94;99434.88;10408257;28;20047;-56
2024/03/24 23:11:28;;;;;;;9.77;0.95;;;;;;;9.37;58.51;99439.88;10409268;28;20176;-56
2024/03/24 23:16:29;;;;;;;9.00;1.52;;;;;;;9.43;58.73;99444.47;10391423;28;20041;-57
2024/03/24 23:21:29;;;;;;;8.13;0.40;;;;;;;9.46;58.79;99436.88;10405227;28;20052;-58
2024/03/24 23:26:30;;;;;;;3.97;0.60;;;;;;;9.32;58.48;99451.16;10404577;28;20049;-58
2024/03/24 23:31:31;;;;;;;2.85;0.60;;;;;;;9.33;58.60;99450.97;10401121;28;20041;-58
2024/03/24 23:36:31;;;;;;;4.63;1.40;;;;;;;9.22;58.43;99464.03;10405564;28;20553;-58
2024/03/24 23:41:32;;;;;;;4.13;1.08;;;;;;;9.21;58.11;99463.22;10405768;28;20513;-58